createdAt,value
2017-07-21T00:00:00.635Z,18.52
2017-07-21T00:01:22.185Z,18.58
2017-07-21T00:02:44.950Z,18.65
2017-07-21T00:04:06.785Z,18.6
2017-07-21T00:05:28.964Z,18.62
2017-07-21T00:06:51.131Z,18.72
2017-07-21T00:08:13.850Z,18.66
2017-07-21T00:09:35.994Z,18.65
2017-07-21T00:10:57.655Z,18.66
2017-07-21T00:12:19.498Z,18.6
2017-07-21T00:13:41.643Z,18.58
2017-07-21T00:15:03.817Z,18.66
2017-07-21T00:16:25.013Z,18.62
2017-07-21T00:17:46.845Z,18.57
2017-07-21T00:19:08.627Z,18.55
2017-07-21T00:20:30.137Z,18.45
2017-07-21T00:21:51.668Z,18.52
2017-07-21T00:23:13.345Z,18.5
2017-07-21T00:24:35.260Z,18.45
2017-07-21T00:25:57.829Z,18.44
2017-07-21T00:27:19.670Z,18.3
2017-07-21T00:28:41.515Z,18.29
2017-07-21T00:30:03.325Z,18.25
2017-07-21T00:31:25.217Z,18.17
2017-07-21T00:32:47.797Z,18.12
2017-07-21T00:34:09.649Z,18.11
2017-07-21T00:35:31.965Z,17.9
2017-07-21T00:36:53.528Z,17.87
2017-07-21T00:38:15.677Z,17.81
2017-07-21T00:39:37.195Z,17.71
2017-07-21T00:40:59.629Z,17.7
2017-07-21T00:42:21.496Z,17.68
2017-07-21T00:43:43.328Z,17.64
2017-07-21T00:45:05.544Z,17.64
2017-07-21T00:46:27.638Z,17.55
2017-07-21T00:47:49.486Z,17.55
2017-07-21T00:49:10.995Z,17.52
2017-07-21T00:50:32.850Z,17.63
2017-07-21T00:51:55.055Z,17.56
2017-07-21T00:53:16.268Z,17.62
2017-07-21T00:54:38.105Z,17.74
2017-07-21T00:55:59.977Z,17.79
2017-07-21T00:57:21.548Z,17.75
2017-07-21T00:58:43.712Z,17.81
2017-07-21T01:00:05.927Z,17.89
2017-07-21T01:01:27.768Z,17.84
2017-07-21T01:02:49.909Z,17.92
2017-07-21T01:04:11.755Z,17.89
2017-07-21T01:05:34.219Z,17.95
2017-07-21T01:06:56.470Z,17.97
2017-07-21T01:08:18.579Z,18.05
2017-07-21T01:09:41.076Z,18.03
2017-07-21T01:11:02.630Z,18.07
2017-07-21T01:12:24.157Z,18.08
2017-07-21T01:13:46.899Z,18.08
2017-07-21T01:15:08.821Z,18.07
2017-07-21T01:16:31.317Z,18.07
2017-07-21T01:17:53.296Z,18.14
2017-07-21T01:19:15.196Z,18.05
2017-07-21T01:20:36.397Z,17.99
2017-07-21T01:21:58.232Z,17.92
2017-07-21T01:23:19.745Z,17.96
2017-07-21T01:24:41.953Z,17.92
2017-07-21T01:26:04.108Z,17.77
2017-07-21T01:27:25.932Z,17.71
2017-07-21T01:28:48.089Z,17.72
2017-07-21T01:30:10.214Z,17.58
2017-07-21T01:31:32.054Z,17.56
2017-07-21T01:32:53.962Z,17.43
2017-07-21T01:34:16.206Z,17.34
2017-07-21T01:35:38.599Z,17.19
2017-07-21T01:37:01.115Z,17.07
2017-07-21T01:38:23.325Z,17
2017-07-21T01:39:45.578Z,16.91
2017-07-21T01:41:08.071Z,16.89
2017-07-21T01:42:29.779Z,16.83
2017-07-21T01:43:51.980Z,16.7
2017-07-21T01:45:13.175Z,16.61
2017-07-21T01:46:35.273Z,16.53
2017-07-21T01:47:57.807Z,16.5
2017-07-21T01:49:19.369Z,16.39
2017-07-21T01:50:40.870Z,16.31
2017-07-21T01:52:03.082Z,16.23
2017-07-21T01:53:24.914Z,16.15
2017-07-21T01:54:47.118Z,16.12
2017-07-21T01:56:09.291Z,16.11
2017-07-21T01:57:31.205Z,16.01
2017-07-21T01:58:53.447Z,16
2017-07-21T02:00:15.595Z,15.94
2017-07-21T02:01:37.837Z,15.89
2017-07-21T02:03:00.401Z,15.84
2017-07-21T02:04:22.564Z,15.82
2017-07-21T02:05:45.078Z,15.78
2017-07-21T02:07:07.237Z,15.8
2017-07-21T02:08:29.639Z,15.69
2017-07-21T02:09:51.309Z,15.71
2017-07-21T02:11:13.915Z,15.72
2017-07-21T02:12:36.163Z,15.72
2017-07-21T02:13:57.737Z,15.69
2017-07-21T02:15:19.250Z,15.57
2017-07-21T02:16:41.410Z,15.51
2017-07-21T02:18:03.568Z,15.57
2017-07-21T02:19:25.948Z,15.51
2017-07-21T02:20:48.099Z,15.46
2017-07-21T02:22:09.948Z,15.64
2017-07-21T02:23:31.487Z,15.59
2017-07-21T02:24:54.166Z,15.6
2017-07-21T02:26:16.003Z,15.54
2017-07-21T02:27:37.843Z,15.53
2017-07-21T02:28:59.406Z,15.44
2017-07-21T02:30:21.964Z,15.38
2017-07-21T02:31:43.808Z,15.34
2017-07-21T02:33:05.688Z,15.34
2017-07-21T02:34:27.664Z,15.31
2017-07-21T02:35:49.584Z,15.17
2017-07-21T02:37:11.540Z,15.2
2017-07-21T02:38:33.034Z,15.13
2017-07-21T02:39:54.554Z,15.16
2017-07-21T02:41:16.749Z,15.07
2017-07-21T02:42:39.248Z,15.03
2017-07-21T02:44:01.396Z,15.02
2017-07-21T02:45:23.979Z,15.02
2017-07-21T02:46:45.742Z,15.07
2017-07-21T02:48:08.195Z,14.98
2017-07-21T02:49:29.707Z,15.01
2017-07-21T02:50:51.930Z,15.07
2017-07-21T02:52:14.686Z,14.99
2017-07-21T02:53:36.835Z,14.98
2017-07-21T02:54:58.398Z,15.03
2017-07-21T02:56:20.568Z,14.96
2017-07-21T02:57:42.752Z,14.98
2017-07-21T02:59:05.205Z,14.95
2017-07-21T03:00:27.367Z,14.92
2017-07-21T03:01:49.828Z,14.99
2017-07-21T03:03:11.927Z,14.96
2017-07-21T03:04:33.885Z,14.95
2017-07-21T03:05:56.351Z,14.99
2017-07-21T03:07:18.176Z,14.95
2017-07-21T03:08:40.254Z,14.98
2017-07-21T03:10:02.472Z,14.96
2017-07-21T03:11:24.639Z,14.92
2017-07-21T03:12:46.836Z,14.96
2017-07-21T03:14:09.333Z,14.83
2017-07-21T03:15:31.773Z,14.84
2017-07-21T03:16:53.307Z,14.83
2017-07-21T03:18:15.131Z,14.91
2017-07-21T03:19:37.297Z,14.86
2017-07-21T03:20:59.128Z,14.83
2017-07-21T03:22:20.955Z,14.73
2017-07-21T03:23:43.100Z,14.69
2017-07-21T03:25:05.490Z,14.68
2017-07-21T03:26:27.665Z,14.73
2017-07-21T03:27:49.577Z,14.61
2017-07-21T03:29:10.774Z,14.64
2017-07-21T03:30:31.976Z,14.62
2017-07-21T03:31:54.158Z,14.55
2017-07-21T03:33:16.305Z,14.58
2017-07-21T03:34:37.857Z,14.6
2017-07-21T03:35:59.313Z,14.61
2017-07-21T03:37:21.452Z,14.65
2017-07-21T03:38:43.596Z,14.57
2017-07-21T03:40:04.893Z,14.58
2017-07-21T03:41:26.984Z,14.6
2017-07-21T03:42:49.238Z,14.7
2017-07-21T03:44:11.077Z,14.7
2017-07-21T03:45:32.288Z,14.72
2017-07-21T03:46:54.419Z,14.73
2017-07-21T03:48:16.867Z,14.72
2017-07-21T03:49:38.841Z,14.78
2017-07-21T03:51:00.712Z,14.8
2017-07-21T03:52:22.484Z,14.88
2017-07-21T03:53:44.306Z,14.88
2017-07-21T03:55:05.817Z,14.83
2017-07-21T03:56:27.348Z,14.86
2017-07-21T03:57:50.163Z,14.98
2017-07-21T03:59:12.357Z,14.95
2017-07-21T04:00:33.558Z,15.06
2017-07-21T04:01:55.705Z,15.03
2017-07-21T04:03:18.427Z,14.99
2017-07-21T04:04:40.258Z,15.03
2017-07-21T04:06:01.775Z,15.06
2017-07-21T04:07:23.621Z,15.06
2017-07-21T04:08:46.622Z,15.1
2017-07-21T04:10:08.159Z,15.19
2017-07-21T04:11:29.375Z,15.14
2017-07-21T04:12:51.528Z,15.16
2017-07-21T04:14:14.360Z,15.16
2017-07-21T04:15:36.232Z,15.2
2017-07-21T04:16:57.477Z,15.17
2017-07-21T04:18:19.040Z,15.23
2017-07-21T04:19:41.637Z,15.27
2017-07-21T04:21:03.498Z,15.27
2017-07-21T04:22:25.317Z,15.39
2017-07-21T04:23:46.827Z,15.46
2017-07-21T04:25:09.596Z,15.46
2017-07-21T04:26:31.884Z,15.51
2017-07-21T04:27:53.777Z,15.56
2017-07-21T04:29:15.284Z,15.65
2017-07-21T04:30:37.368Z,15.72
2017-07-21T04:31:59.858Z,15.72
2017-07-21T04:33:22.322Z,15.75
2017-07-21T04:34:43.934Z,15.8
2017-07-21T04:36:06.102Z,16.01
2017-07-21T04:37:27.948Z,16.05
2017-07-21T04:38:49.824Z,16.2
2017-07-21T04:40:12.067Z,16.24
2017-07-21T04:41:33.528Z,16.3
2017-07-21T04:42:55.777Z,16.35
2017-07-21T04:44:18.052Z,16.49
2017-07-21T04:45:39.872Z,16.48
2017-07-21T04:47:02.438Z,16.56
2017-07-21T04:48:24.597Z,16.63
2017-07-21T04:49:47.094Z,16.78
2017-07-21T04:51:09.250Z,16.94
2017-07-21T04:52:31.337Z,16.89
2017-07-21T04:53:53.187Z,17.03
2017-07-21T04:55:15.797Z,17.06
2017-07-21T04:56:37.637Z,17.14
2017-07-21T04:58:00.020Z,17.21
2017-07-21T04:59:22.179Z,17.37
2017-07-21T05:00:44.455Z,17.51
2017-07-21T05:02:06.657Z,17.56
2017-07-21T05:03:29.104Z,17.68
2017-07-21T05:04:50.936Z,17.78
2017-07-21T05:06:12.824Z,18.1
2017-07-21T05:07:34.658Z,18.95
2017-07-21T05:08:57.068Z,20.41
2017-07-21T05:10:18.884Z,21.69
2017-07-21T05:11:41.027Z,22.77
2017-07-21T05:13:02.906Z,23.46
2017-07-21T05:14:25.408Z,24.2
2017-07-21T05:15:47.952Z,24.77
2017-07-21T05:17:10.112Z,25.18
2017-07-21T05:18:32.577Z,25.79
2017-07-21T05:19:54.724Z,26.47
2017-07-21T05:21:16.979Z,27.02
2017-07-21T05:22:39.230Z,27.44
2017-07-21T05:24:01.367Z,28.15
2017-07-21T05:25:24.094Z,28.88
2017-07-21T05:26:46.256Z,29.45
2017-07-21T05:28:08.490Z,29.85
2017-07-21T05:29:30.727Z,30.26
2017-07-21T05:30:53.416Z,30.89
2017-07-21T05:32:15.265Z,31.36
2017-07-21T05:33:37.118Z,31.69
2017-07-21T05:34:58.986Z,32.15
2017-07-21T05:36:21.407Z,32.25
2017-07-21T05:37:43.566Z,32.44
2017-07-21T05:39:05.832Z,32.63
2017-07-21T05:40:28.368Z,32.82
2017-07-21T05:41:50.147Z,32.89
2017-07-21T05:43:12.132Z,33.22
2017-07-21T05:44:33.688Z,33.5
2017-07-21T05:45:56.187Z,33.84
2017-07-21T05:47:19.102Z,34.19
2017-07-21T05:48:40.939Z,34.56
2017-07-21T05:50:03.407Z,34.56
2017-07-21T05:51:25.566Z,34.49
2017-07-21T05:52:48.137Z,34.5
2017-07-21T05:54:10.038Z,34.72
2017-07-21T05:55:31.964Z,35.1
2017-07-21T05:56:54.416Z,35.7
2017-07-21T05:58:15.950Z,36.15
2017-07-21T05:59:38.225Z,36.72
2017-07-21T06:01:00.175Z,37.17
2017-07-21T06:02:21.838Z,37.21
2017-07-21T06:03:44.615Z,37.27
2017-07-21T06:05:06.476Z,37.29
2017-07-21T06:06:28.008Z,37.55
2017-07-21T06:07:50.487Z,37.62
2017-07-21T06:09:12.738Z,37.31
2017-07-21T06:10:34.287Z,37.12
2017-07-21T06:11:56.149Z,35.81
2017-07-21T06:13:18.450Z,34.82
2017-07-21T06:14:40.918Z,35.07
2017-07-21T06:16:02.468Z,35.25
2017-07-21T06:17:25.007Z,35.45
2017-07-21T06:18:47.510Z,36.23
2017-07-21T06:20:09.988Z,36.57
2017-07-21T06:21:31.848Z,36.35
2017-07-21T06:22:54.484Z,36.27
2017-07-21T06:24:16.649Z,35.92
2017-07-21T06:25:38.868Z,35.75
2017-07-21T06:27:00.833Z,35.47
2017-07-21T06:28:22.983Z,34.53
2017-07-21T06:29:45.127Z,34.12
2017-07-21T06:31:07.937Z,33.47
2017-07-21T06:32:29.517Z,34.37
2017-07-21T06:33:50.824Z,35.62
2017-07-21T06:35:12.996Z,36.32
2017-07-21T06:36:35.469Z,36.22
2017-07-21T06:37:57.029Z,35.11
2017-07-21T06:39:19.598Z,35.55
2017-07-21T06:40:41.764Z,36.47
2017-07-21T06:42:04.568Z,37.22
2017-07-21T06:43:26.085Z,35.8
2017-07-21T06:44:48.587Z,33.61
2017-07-21T06:46:10.488Z,31.44
2017-07-21T06:47:32.608Z,29.52
2017-07-21T06:48:54.911Z,29.09
2017-07-21T06:50:17.098Z,29.34
2017-07-21T06:51:39.263Z,30.95
2017-07-21T06:53:01.687Z,32.82
2017-07-21T06:54:24.279Z,32.22
2017-07-21T06:55:46.764Z,30.98
2017-07-21T06:57:08.297Z,31.96
2017-07-21T06:58:30.307Z,33.75
2017-07-21T06:59:52.497Z,34.78
2017-07-21T07:01:14.654Z,35.99
2017-07-21T07:02:36.874Z,36.23
2017-07-21T07:03:58.761Z,36.62
2017-07-21T07:05:19.978Z,37.36
2017-07-21T07:06:41.838Z,37.43
2017-07-21T07:08:03.728Z,36.15
2017-07-21T07:09:25.940Z,35.06
2017-07-21T07:10:48.093Z,35.28
2017-07-21T07:12:09.627Z,35.84
2017-07-21T07:13:31.797Z,35.93
2017-07-21T07:14:53.569Z,35.77
2017-07-21T07:16:16.062Z,35.6
2017-07-21T07:17:37.947Z,35.1
2017-07-21T07:19:00.428Z,35.89
2017-07-21T07:20:23.099Z,36.9
2017-07-21T07:21:45.269Z,37.63
2017-07-21T07:23:07.122Z,38.26
2017-07-21T07:24:28.656Z,38.38
2017-07-21T07:25:51.178Z,38.79
2017-07-21T07:27:13.045Z,38.28
2017-07-21T07:28:35.380Z,38.26
2017-07-21T07:29:57.866Z,38.19
2017-07-21T07:31:19.750Z,38.47
2017-07-21T07:32:41.691Z,38.91
2017-07-21T07:34:03.556Z,39.44
2017-07-21T07:35:25.418Z,39.22
2017-07-21T07:36:47.320Z,38.93
2017-07-21T07:38:09.495Z,38.49
2017-07-21T07:39:31.108Z,37.94
2017-07-21T07:40:53.277Z,38.07
2017-07-21T07:42:16.030Z,38.07
2017-07-21T07:43:37.927Z,37.84
2017-07-21T07:44:59.514Z,37.4
2017-07-21T07:46:21.416Z,37.39
2017-07-21T07:47:43.907Z,37.94
2017-07-21T07:49:06.422Z,38.38
2017-07-21T07:50:28.267Z,38.9
2017-07-21T07:51:50.127Z,38.95
2017-07-21T07:53:12.697Z,38.96
2017-07-21T07:54:34.537Z,38.79
2017-07-21T07:55:57.090Z,38.49
2017-07-21T07:57:19.579Z,38.71
2017-07-21T07:58:41.099Z,38.83
2017-07-21T08:00:02.639Z,37.85
2017-07-21T08:01:24.925Z,36.37
2017-07-21T08:02:46.768Z,35.93
2017-07-21T08:04:09.304Z,34.97
2017-07-21T08:05:31.178Z,35.66
2017-07-21T08:06:52.731Z,35.97
2017-07-21T08:08:14.278Z,36.37
2017-07-21T08:09:37.127Z,36.76
2017-07-21T08:10:59.359Z,36.83
2017-07-21T08:12:21.218Z,37.15
2017-07-21T08:13:43.421Z,36.65
2017-07-21T08:15:05.925Z,36.29
2017-07-21T08:16:28.180Z,34.96
2017-07-21T08:17:50.669Z,33.93
2017-07-21T08:19:12.527Z,32.99
2017-07-21T08:20:34.628Z,31.84
2017-07-21T08:21:56.813Z,30.75
2017-07-21T08:23:19.064Z,28.86
2017-07-21T08:24:40.368Z,28.11
2017-07-21T08:26:02.874Z,27.65
2017-07-21T08:27:25.045Z,27.12
2017-07-21T08:28:47.224Z,26.4
2017-07-21T08:30:09.411Z,25.98
2017-07-21T08:31:32.247Z,25.5
2017-07-21T08:32:54.450Z,25.27
2017-07-21T08:34:16.748Z,24.98
2017-07-21T08:35:38.913Z,24.52
2017-07-21T08:37:01.178Z,24.35
2017-07-21T08:38:23.408Z,24.08
2017-07-21T08:39:44.982Z,23.94
2017-07-21T08:41:07.467Z,23.78
2017-07-21T08:42:29.959Z,23.66
2017-07-21T08:43:51.827Z,23.63
2017-07-21T08:45:13.685Z,23.51
2017-07-21T08:46:35.945Z,23.57
2017-07-21T08:47:58.050Z,23.61
2017-07-21T08:49:20.537Z,23.5
2017-07-21T08:50:42.753Z,23.31
2017-07-21T08:52:04.965Z,23.17
2017-07-21T08:53:27.117Z,22.85
2017-07-21T08:54:48.974Z,22.72
2017-07-21T08:56:10.517Z,22.67
2017-07-21T08:57:33.049Z,22.6
2017-07-21T08:58:55.573Z,22.7
2017-07-21T09:00:17.104Z,22.83
2017-07-21T09:01:38.948Z,22.8
2017-07-21T09:03:01.118Z,22.85
2017-07-21T09:04:23.368Z,22.86
2017-07-21T09:05:45.827Z,22.98
2017-07-21T09:07:07.421Z,23.02
2017-07-21T09:08:29.277Z,23.25
2017-07-21T09:09:51.726Z,23.33
2017-07-21T09:11:13.268Z,23.31
2017-07-21T09:12:35.458Z,23.35
2017-07-21T09:13:57.677Z,23.4
2017-07-21T09:15:19.188Z,23.42
2017-07-21T09:16:41.703Z,23.54
2017-07-21T09:18:03.537Z,23.58
2017-07-21T09:19:25.372Z,23.7
2017-07-21T09:20:47.231Z,23.68
2017-07-21T09:22:08.457Z,23.65
2017-07-21T09:23:30.685Z,23.69
2017-07-21T09:24:52.867Z,23.65
2017-07-21T09:26:15.386Z,23.7
2017-07-21T09:27:37.232Z,23.75
2017-07-21T09:28:58.776Z,23.78
2017-07-21T09:30:20.921Z,23.98
2017-07-21T09:31:43.117Z,24.1
2017-07-21T09:33:05.281Z,24.31
2017-07-21T09:34:27.779Z,24.34
2017-07-21T09:35:49.711Z,23.88
2017-07-21T09:37:12.547Z,23.12
2017-07-21T09:38:34.701Z,22.97
2017-07-21T09:39:56.857Z,22.92
2017-07-21T09:41:19.329Z,22.86
2017-07-21T09:42:41.165Z,22.88
2017-07-21T09:44:03.202Z,23.02
2017-07-21T09:45:25.037Z,23.23
2017-07-21T09:46:47.217Z,23.35
2017-07-21T09:48:10.143Z,23.25
2017-07-21T09:49:31.995Z,22.72
2017-07-21T09:50:53.528Z,22.9
2017-07-21T09:52:15.773Z,23.15
2017-07-21T09:53:38.309Z,23.33
2017-07-21T09:55:00.163Z,23.32
2017-07-21T09:56:22.636Z,23.57
2017-07-21T09:57:45.117Z,23.73
2017-07-21T09:59:07.269Z,23.91
2017-07-21T10:00:29.132Z,24.05
2017-07-21T10:01:51.277Z,24.1
2017-07-21T10:03:13.773Z,24.08
2017-07-21T10:04:36.391Z,23.97
2017-07-21T10:05:58.238Z,23.75
2017-07-21T10:07:19.783Z,23.51
2017-07-21T10:08:41.647Z,23.33
2017-07-21T10:10:03.787Z,23.76
2017-07-21T10:11:25.946Z,23.94
2017-07-21T10:12:47.819Z,24.22
2017-07-21T10:14:09.727Z,24.4
2017-07-21T10:15:31.876Z,24.78
2017-07-21T10:16:53.087Z,24.87
2017-07-21T10:18:15.646Z,24.98
2017-07-21T10:19:37.827Z,24.8
2017-07-21T10:20:59.703Z,24.58
2017-07-21T10:22:21.557Z,24.93
2017-07-21T10:23:43.738Z,25.13
2017-07-21T10:25:05.566Z,24.87
2017-07-21T10:26:27.727Z,24.81
2017-07-21T10:27:49.885Z,24.83
2017-07-21T10:29:12.054Z,24.6
2017-07-21T10:30:34.304Z,24.71
2017-07-21T10:31:56.838Z,24.93
2017-07-21T10:33:19.327Z,24.9
2017-07-21T10:34:41.817Z,25.03
2017-07-21T10:36:04.392Z,24.81
2017-07-21T10:37:27.086Z,24.83
2017-07-21T10:38:48.625Z,24.42
2017-07-21T10:40:11.166Z,23.93
2017-07-21T10:41:33.011Z,23.65
2017-07-21T10:42:55.109Z,23.51
2017-07-21T10:44:16.946Z,23.54
2017-07-21T10:45:38.915Z,23.58
2017-07-21T10:47:00.754Z,23.5
2017-07-21T10:48:23.200Z,23.35
2017-07-21T10:49:45.679Z,23.2
2017-07-21T10:51:08.162Z,23.23
2017-07-21T10:52:30.388Z,23.39
2017-07-21T10:53:52.847Z,23.75
2017-07-21T10:55:14.726Z,23.88
2017-07-21T10:56:36.553Z,24.08
2017-07-21T10:57:58.789Z,24.09
2017-07-21T10:59:21.245Z,23.7
2017-07-21T11:00:43.125Z,23.78
2017-07-21T11:02:05.274Z,24.05
2017-07-21T11:03:27.651Z,24.37
2017-07-21T11:04:50.057Z,24.34
2017-07-21T11:06:12.657Z,23.84
2017-07-21T11:07:34.508Z,23.6
2017-07-21T11:08:56.392Z,23.61
2017-07-21T11:10:18.544Z,23.5
2017-07-21T11:11:41.034Z,23.75
2017-07-21T11:13:02.576Z,23.8
2017-07-21T11:14:24.877Z,24
2017-07-21T11:15:47.625Z,24.15
2017-07-21T11:17:09.456Z,24.47
2017-07-21T11:18:31.626Z,24.67
2017-07-21T11:19:53.806Z,24.81
2017-07-21T11:21:16.291Z,24.81
2017-07-21T11:22:38.443Z,25.02
2017-07-21T11:23:59.667Z,25.13
2017-07-21T11:25:21.853Z,25.17
2017-07-21T11:26:44.636Z,25.13
2017-07-21T11:28:06.817Z,25.4
2017-07-21T11:29:28.786Z,25.35
2017-07-21T11:30:50.316Z,25.4
2017-07-21T11:32:12.465Z,25.43
2017-07-21T11:33:34.932Z,25.1
2017-07-21T11:34:56.514Z,24.96
2017-07-21T11:36:18.036Z,25.02
2017-07-21T11:37:39.914Z,24.96
2017-07-21T11:39:02.416Z,24.96
2017-07-21T11:40:24.575Z,24.84
2017-07-21T11:41:46.136Z,24.81
2017-07-21T11:43:08.425Z,24.5
2017-07-21T11:44:30.925Z,24.39
2017-07-21T11:45:52.908Z,24.49
2017-07-21T11:47:14.734Z,24.8
2017-07-21T11:48:37.485Z,24.99
2017-07-21T11:49:59.023Z,24.95
2017-07-21T11:51:20.871Z,25.24
2017-07-21T11:52:43.068Z,25.58
2017-07-21T11:54:05.635Z,25.82
2017-07-21T11:55:27.153Z,25.88
2017-07-21T11:56:49.010Z,25.85
2017-07-21T11:58:11.555Z,25.28
2017-07-21T11:59:33.705Z,24.98
2017-07-21T12:00:55.866Z,24.88
2017-07-21T12:02:18.346Z,24.81
2017-07-21T12:03:40.586Z,24.6
2017-07-21T12:05:03.371Z,24.43
2017-07-21T12:06:25.226Z,24.31
2017-07-21T12:07:47.696Z,23.95
2017-07-21T12:09:09.874Z,24
2017-07-21T12:10:31.976Z,24.34
2017-07-21T12:11:53.951Z,24.47
2017-07-21T12:13:15.475Z,24.83
2017-07-21T12:14:37.323Z,25.17
2017-07-21T12:15:59.488Z,25.15
2017-07-21T12:17:21.675Z,25.39
2017-07-21T12:18:44.142Z,25.38
2017-07-21T12:20:05.974Z,25.38
2017-07-21T12:21:28.795Z,25.32
2017-07-21T12:22:50.669Z,25.47
2017-07-21T12:24:12.210Z,25.6
2017-07-21T12:25:34.055Z,25.72
2017-07-21T12:26:55.888Z,25.62
2017-07-21T12:28:18.085Z,25.7
2017-07-21T12:29:39.617Z,25.87
2017-07-21T12:31:01.506Z,25.98
2017-07-21T12:32:23.947Z,26.01
2017-07-21T12:33:45.854Z,26.35
2017-07-21T12:35:08.112Z,26.67
2017-07-21T12:36:30.595Z,27.02
2017-07-21T12:37:53.444Z,26.91
2017-07-21T12:39:15.616Z,27.19
2017-07-21T12:40:38.253Z,27.47
2017-07-21T12:42:00.739Z,27.67
2017-07-21T12:43:23.905Z,27.62
2017-07-21T12:44:46.502Z,27.29
2017-07-21T12:46:08.156Z,27.06
2017-07-21T12:47:30.657Z,26.48
2017-07-21T12:48:53.224Z,25.9
2017-07-21T12:50:15.095Z,25.65
2017-07-21T12:51:37.072Z,25.47
2017-07-21T12:52:58.636Z,25.39
2017-07-21T12:54:21.094Z,25.51
2017-07-21T12:55:43.389Z,25.4
2017-07-21T12:57:05.617Z,25.24
2017-07-21T12:58:27.495Z,25.05
2017-07-21T12:59:50.398Z,24.77
2017-07-21T13:01:12.903Z,24.5
2017-07-21T13:02:34.444Z,24.37
2017-07-21T13:03:56.006Z,24.46
2017-07-21T13:05:18.104Z,24.62
2017-07-21T13:06:40.250Z,24.6
2017-07-21T13:08:02.744Z,24.55
2017-07-21T13:09:24.393Z,24.4
2017-07-21T13:10:46.893Z,24.37
2017-07-21T13:12:08.779Z,24.42
2017-07-21T13:13:30.618Z,24.5
2017-07-21T13:14:52.816Z,24.55
2017-07-21T13:16:15.614Z,24.3
2017-07-21T13:17:37.786Z,24.2
2017-07-21T13:18:59.635Z,24.31
2017-07-21T13:20:21.816Z,24.31
2017-07-21T13:21:44.238Z,24.08
2017-07-21T13:23:06.123Z,24
2017-07-21T13:24:28.015Z,24.21
2017-07-21T13:25:50.624Z,24.3
2017-07-21T13:27:13.517Z,24.37
2017-07-21T13:28:35.378Z,24.57
2017-07-21T13:29:57.533Z,24.58
2017-07-21T13:31:19.700Z,24.61
2017-07-21T13:32:42.447Z,24.73
2017-07-21T13:34:04.915Z,24.47
2017-07-21T13:35:27.405Z,24.39
2017-07-21T13:36:49.382Z,23.95
2017-07-21T13:38:11.815Z,23.73
2017-07-21T13:39:34.306Z,23.78
2017-07-21T13:40:56.504Z,23.8
2017-07-21T13:42:18.504Z,23.73
2017-07-21T13:43:40.708Z,23.84
2017-07-21T13:45:02.875Z,23.95
2017-07-21T13:46:25.053Z,23.98
2017-07-21T13:47:46.615Z,24.15
2017-07-21T13:49:09.084Z,24.22
2017-07-21T13:50:31.235Z,24.43
2017-07-21T13:51:53.702Z,24.58
2017-07-21T13:53:15.695Z,24.6
2017-07-21T13:54:38.446Z,24.6
2017-07-21T13:56:01.067Z,24.6
2017-07-21T13:57:23.014Z,24.83
2017-07-21T13:58:45.049Z,24.96
2017-07-21T14:00:07.236Z,25.23
2017-07-21T14:01:29.726Z,25.62
2017-07-21T14:02:51.896Z,25.61
2017-07-21T14:04:14.386Z,25.33
2017-07-21T14:05:36.172Z,25.33
2017-07-21T14:06:58.087Z,24.9
2017-07-21T14:08:19.925Z,24.87
2017-07-21T14:09:42.086Z,24.69
2017-07-21T14:11:04.930Z,24.67
2017-07-21T14:12:27.102Z,24.83
2017-07-21T14:13:48.671Z,25
2017-07-21T14:15:10.865Z,25.17
2017-07-21T14:16:32.944Z,25.43
2017-07-21T14:17:55.212Z,25.57
2017-07-21T14:19:17.361Z,25.69
2017-07-21T14:20:39.572Z,25.64
2017-07-21T14:22:01.414Z,25.72
2017-07-21T14:23:23.574Z,25.92
2017-07-21T14:24:45.431Z,25.99
2017-07-21T14:26:07.709Z,26.36
2017-07-21T14:27:29.863Z,26.65
2017-07-21T14:28:51.815Z,26.75
2017-07-21T14:30:13.345Z,26.3
2017-07-21T14:31:35.565Z,25.94
2017-07-21T14:32:57.676Z,25.82
2017-07-21T14:34:19.235Z,26.02
2017-07-21T14:35:41.391Z,26.33
2017-07-21T14:37:03.536Z,26.3
2017-07-21T14:38:25.367Z,26.37
2017-07-21T14:39:47.523Z,26.02
2017-07-21T14:41:09.688Z,26.01
2017-07-21T14:42:31.236Z,25.9
2017-07-21T14:43:54.124Z,25.95
2017-07-21T14:45:15.756Z,25.77
2017-07-21T14:46:36.982Z,25.97
2017-07-21T14:47:58.945Z,26.02
2017-07-21T14:49:21.685Z,26.15
2017-07-21T14:50:43.205Z,26.26
2017-07-21T14:52:05.046Z,26.1
2017-07-21T14:53:26.920Z,25.99
2017-07-21T14:54:49.120Z,26.01
2017-07-21T14:56:11.284Z,26.29
2017-07-21T14:57:33.480Z,26.35
2017-07-21T14:58:55.648Z,26.33
2017-07-21T15:00:18.169Z,25.97
2017-07-21T15:01:40.029Z,25.94
2017-07-21T15:03:02.547Z,26.01
2017-07-21T15:04:25.081Z,25.98
2017-07-21T15:05:46.887Z,26.01
2017-07-21T15:07:09.483Z,26.2
2017-07-21T15:08:31.632Z,26.09
2017-07-21T15:09:54.106Z,26.15
2017-07-21T15:11:16.258Z,26.21
2017-07-21T15:12:38.105Z,26.29
2017-07-21T15:14:00.078Z,25.92
2017-07-21T15:15:22.546Z,25.8
2017-07-21T15:16:44.574Z,25.88
2017-07-21T15:18:06.745Z,25.97
2017-07-21T15:19:28.267Z,25.98
2017-07-21T15:20:49.809Z,26.02
2017-07-21T15:22:11.977Z,25.88
2017-07-21T15:23:34.147Z,25.79
2017-07-21T15:24:56.309Z,25.95
2017-07-21T15:26:18.907Z,26.06
2017-07-21T15:27:41.322Z,26.3
2017-07-21T15:29:03.239Z,26.32
2017-07-21T15:30:25.437Z,25.99
2017-07-21T15:31:47.298Z,25.85
2017-07-21T15:33:09.531Z,25.85
2017-07-21T15:34:31.379Z,25.85
2017-07-21T15:35:53.574Z,25.91
2017-07-21T15:37:16.095Z,25.88
2017-07-21T15:38:38.547Z,25.73
2017-07-21T15:40:00.408Z,25.55
2017-07-21T15:41:22.936Z,25.35
2017-07-21T15:42:45.075Z,25.32
2017-07-21T15:44:07.926Z,25.24
2017-07-21T15:45:30.104Z,25.21
2017-07-21T15:46:52.287Z,25.08
2017-07-21T15:48:14.148Z,25.03
2017-07-21T15:49:36.637Z,25.03
2017-07-21T15:50:58.793Z,25.15
2017-07-21T15:52:21.328Z,25.02
2017-07-21T15:53:43.827Z,24.83
2017-07-21T15:55:06.589Z,24.98
2017-07-21T15:56:28.765Z,25.05
2017-07-21T15:57:50.997Z,24.77
2017-07-21T15:59:12.874Z,24.42
2017-07-21T16:00:34.726Z,24.4
2017-07-21T16:01:57.230Z,24.5
2017-07-21T16:03:19.122Z,24.24
2017-07-21T16:04:41.696Z,24.37
2017-07-21T16:06:04.484Z,24.34
2017-07-21T16:07:26.982Z,24.35
2017-07-21T16:08:48.816Z,24.22
2017-07-21T16:10:11.136Z,24.22
2017-07-21T16:11:34.734Z,24.15
2017-07-21T16:12:57.517Z,24.09
2017-07-21T16:14:20.001Z,24.15
2017-07-21T16:15:41.860Z,24.13
2017-07-21T16:17:03.716Z,24.05
2017-07-21T16:18:25.570Z,24.1
2017-07-21T16:19:47.726Z,24.09
2017-07-21T16:21:10.283Z,24.06
2017-07-21T16:22:32.446Z,24.28
2017-07-21T16:23:55.124Z,24.2
2017-07-21T16:25:17.613Z,24.27
2017-07-21T16:26:39.772Z,24
2017-07-21T16:28:01.880Z,23.8
2017-07-21T16:29:24.196Z,23.58
2017-07-21T16:30:46.357Z,23.46
2017-07-21T16:32:07.916Z,23.43
2017-07-21T16:33:30.344Z,23.53
2017-07-21T16:34:52.847Z,23.57
2017-07-21T16:36:15.013Z,23.65
2017-07-21T16:37:37.189Z,23.83
2017-07-21T16:38:59.491Z,23.87
2017-07-21T16:40:22.073Z,23.83
2017-07-21T16:41:44.260Z,23.88
2017-07-21T16:43:06.538Z,23.9
2017-07-21T16:44:28.960Z,23.87
2017-07-21T16:45:50.805Z,23.84
2017-07-21T16:47:13.307Z,23.79
2017-07-21T16:48:35.917Z,23.84
2017-07-21T16:51:35.898Z,23.88
2017-07-21T16:52:58.602Z,23.87
2017-07-21T16:54:20.840Z,23.79
2017-07-21T16:55:43.246Z,23.78
2017-07-21T16:57:05.389Z,23.8
2017-07-21T16:58:27.552Z,23.73
2017-07-21T16:59:50.118Z,23.85
2017-07-21T17:01:12.040Z,23.9
2017-07-21T17:02:34.218Z,23.78
2017-07-21T17:03:56.496Z,23.84
2017-07-21T17:05:18.677Z,23.72
2017-07-21T17:06:41.468Z,23.75
2017-07-21T17:08:03.635Z,23.7
2017-07-21T17:09:25.617Z,23.72
2017-07-21T17:10:48.174Z,23.69
2017-07-21T17:12:10.789Z,23.7
2017-07-21T17:13:33.378Z,23.73
2017-07-21T17:14:55.896Z,23.7
2017-07-21T17:16:18.237Z,23.7
2017-07-21T17:17:40.685Z,23.68
2017-07-21T17:19:03.244Z,23.57
2017-07-21T17:20:25.752Z,23.58
2017-07-21T17:21:48.257Z,23.54
2017-07-21T17:23:11.055Z,23.57
2017-07-21T17:24:33.422Z,23.47
2017-07-21T17:25:56.139Z,23.47
2017-07-21T17:27:18.045Z,23.42
2017-07-21T17:28:40.778Z,23.46
2017-07-21T17:30:03.268Z,23.38
2017-07-21T17:31:25.776Z,23.27
2017-07-21T17:32:47.946Z,23.36
2017-07-21T17:34:10.417Z,23.31
2017-07-21T17:35:32.899Z,23.32
2017-07-21T17:36:55.354Z,23.35
2017-07-21T17:38:17.210Z,23.32
2017-07-21T17:39:38.996Z,23.38
2017-07-21T17:41:01.268Z,23.2
2017-07-21T17:42:23.116Z,23.22
2017-07-21T17:43:45.281Z,23.17